Hicks Airfield Weather

No METAR data is available for Hicks Airfield, and nearby Alliance Airport's METAR data is commonly used by area pilots. Weather infomation is also available on 126.925 mhz.

  • Current KAFW METAR
    (5.8nm NE) VFR
    Raw Text: KAFW 170353Z 16008KT 10SM CLR 17/12 A2983 RMK AO2 SLP096 T01670117
    Wind: 160° @ 8kts
    Visibility: 10.0sm
    Clouds (AGL): CLR
    Temperature: 16.7°C
    Dew Point: 11.7°C
    Altimeter: 29.83 inHg
  • Current KAFW TAF
    (5.8nm NE)
    Raw Text: KAFW 170246Z 1703/1724 16010KT P6SM FEW250 FM171600 21015KT P6SM FEW050 SCT200 FM172200 26014KT P6SM FEW050 SCT200